This is the latest recevied weather packets stored in our database for station/object KC1DMA. If no packets are shown the sender has not sent any weather packets the latest 10 day(s).
| Time | Temp. | Humidity | Pressure | Rain* | Wind** | Luminosity | Snow |
|---|---|---|---|---|---|---|---|
| 1777722074 | 8.89° C | 89% | 1014.1 hPa | - | - | 25 W/m² | - |
| 1777721771 | 7.78° C | 91% | 1014.2 hPa | - | - | 31 W/m² | - |
| 1777721469 | 8.33° C | 94% | 1014.4 hPa | - | - | 25 W/m² | - |
| 1777721167 | 8.33° C | 94% | 1014.1 hPa | - | - | 28 W/m² | - |
| 1777717232 | 8.33° C | 91% | 1013.3 hPa | - | - | 0 W/m² | - |
| 1777716929 | 8.33° C | 91% | 1013.4 hPa | - | - | 0 W/m² | - |
| 1777716627 | 8.33° C | 91% | 1013.6 hPa | - | - | 0 W/m² | - |
| 1777716326 | 8.33° C | 91% | 1013.4 hPa | - | - | 0 W/m² | - |
| 1777716023 | 8.33° C | 91% | 1013.2 hPa | - | - | 0 W/m² | - |
| 1777715721 | 8.33° C | 91% | 1013.4 hPa | - | - | 0 W/m² | - |
| 1777715419 | 8.33° C | 91% | 1013.4 hPa | - | - | 0 W/m² | - |
| 1777715115 | 8.33° C | 91% | 1013.3 hPa | - | - | 0 W/m² | - |
| 1777714814 | 8.33° C | 91% | 1013.4 hPa | - | - | 0 W/m² | - |
| 1777714512 | 8.33° C | 91% | 1013.3 hPa | - | - | 0 W/m² | - |
| 1777714209 | 8.33° C | 91% | 1013.1 hPa | - | - | 0 W/m² | - |
| 1777713907 | 8.33° C | 91% | 1012.9 hPa | - | - | 0 W/m² | - |
| 1777713604 | 8.33° C | 90% | 1013.2 hPa | - | - | 0 W/m² | - |
| 1777713300 | 8.33° C | 90% | 1013.4 hPa | - | - | 0 W/m² | - |
| 1777674230 | 17.22° C | 39% | 1011.6 hPa | - | - | 145 W/m² | - |
| 1777673322 | 17.22° C | 39% | 1011.7 hPa | - | - | 185 W/m² | - |
| 1777673019 | 17.78° C | 38% | 1011.7 hPa | - | - | 193 W/m² | - |
| 1777671498 | 17.78° C | 37% | 1011.6 hPa | - | - | 276 W/m² | - |
| 1777671195 | 17.22° C | 37% | 1011.7 hPa | - | - | 286 W/m² | - |
| 1777670891 | 17.78° C | 35% | 1011.6 hPa | - | - | 302 W/m² | - |
| 1777670588 | 17.78° C | 36% | 1011.8 hPa | - | - | 321 W/m² | - |
* Rain since midnight (hover to see other rain measurements)
** Current wind speed in m/s (hover to see current wind gust speed)